Weather observations for the past three days for
Poteau, Robert S Kerr Airport
Metric (Imperial)
Date Time (cdt) Wind (kph) Vis. (km) Weather Sky Cond. Temperature (ºC) Relative Humidity Wind Chill (°C) Heat Index (°C) Pressure Precipitation (cm)
Air Dwpt 6 hour altimeter (cm) sea level (mb) 1 hr 3 hr 6 hr
Max. Min.
06 03:15 N 7 16.09 Overcast OVC013 12 10 88% 75.79 0.0
06 02:55 Calm 16.09 Overcast OVC013 12 10 88% 75.84 0.0
06 02:35 N 13 16.09 Overcast OVC013 12 10 88% 75.79 0.0
06 02:15 N 13 16.09 Overcast SCT006 OVC013 12 10 88% 75.82 0.0
06 01:55 Calm 16.09 Overcast SCT007 OVC011 12 10 88% 75.82 0.0
06 01:35 N 11 16.09 Overcast OVC011 12 10 88% 75.82 0.0
06 01:15 N 11 16.09 Overcast OVC011 13 10 82% 75.77 0.0
06 00:55 N 7 16.09 Overcast OVC011 13 10 82% 75.79 0.0
06 00:35 SE 6 16.09 Overcast OVC011 13 11 88% 75.79 0.0
06 00:15 Calm 16.09 Overcast OVC011 13 11 88% 75.79 0.0
05 23:55 Calm 16.09 Overcast OVC013 13 11 88% 75.79 0.0
05 23:35 SW 6 16.09 Overcast OVC015 14 11 82% 75.77 0.0
05 23:15 S 6 16.09 Overcast OVC015 15 11 77% 75.77 0.0
05 22:55 NE 7 16.09 Overcast OVC015 16 12 77% 75.72 0.0
05 22:35 SE 6 16.09 Overcast OVC017 16 12 77% 75.69 0.0
05 22:15 SE 7 16.09 Overcast OVC019 16 12 77% 75.64 0.0
05 21:55 S 9 16.09 Overcast OVC021 16 12 77% 75.64 0.0
05 21:35 SE 11 16.09 Overcast OVC021 17 13 77% 75.62 0.0
05 21:15 S 9 16.09 Overcast OVC021 17 13 77% 75.59 0.0
05 20:55 SE 6 16.09 Overcast OVC023 18 13 73% 75.51 0.0
05 20:35 E 7 16.09 Overcast OVC027 18 13 73% 75.51 0.0
05 20:15 SE 13 16.09 Overcast BKN029 OVC035 19 15 78% 75.49 0.0
05 19:55 E 9 16.09 Overcast SCT029 BKN035 OVC047 20 15 73% 75.46 0.0
05 19:35 E 7 16.09 Overcast SCT033 BKN042 OVC050 21 16 73% 75.44 0.0
05 19:15 Calm 16.09 Overcast SCT029 OVC040 22 17 73% 75.41 0.0
05 18:55 N 6 16.09 Mostly Cloudy SCT029 BKN035 BKN041 22 17 73% 75.36 0.0
05 18:35 Calm 16.09 Mostly Cloudy BKN029 BKN037 BKN043 23 18 74% 75.29 0.0
05 18:15 W 6 16.09 Overcast OVC029 24 18 69% 25 75.29 0.0
05 17:55 W 11 16.09 Mostly Cloudy BKN032 25 20 74% 26 75.26 0.0
05 17:35 S 11 16.09 Mostly Cloudy SCT036 SCT044 BKN055 27 21 70% 29 75.26 0.0
05 17:15 S 13 16.09 Partly Cloudy SCT040 27 20 66% 29 75.26 0.0
05 16:55 S 11 16.09 Partly Cloudy SCT043 SCT050 SCT070 27 20 66% 29 75.26 0.0
05 16:35 SW 15 16.09 Partly Cloudy SCT041 SCT050 27 20 66% 29 75.31 0.0
05 16:15 S 9 16.09 Partly Cloudy SCT033 SCT038 SCT044 27 20 66% 29 75.21 0.0
05 15:55 S 13 16.09 Mostly Cloudy SCT033 BKN041 BKN050 26 19 65% 27 75.26 0.0
05 15:35 S 13 16.09 Fair CLR 27 20 66% 29 75.31 0.0
05 15:15 S 19 16.09 Partly Cloudy SCT044 SCT050 SCT055 27 20 66% 29 75.29 0.0
05 14:55 SW 19 G 28 16.09 Mostly Cloudy SCT036 SCT046 BKN055 27 20 66% 29 75.31 0.0
05 14:35 SW 15 16.09 Overcast BKN035 BKN046 OVC055 26 19 65% 27 75.36 0.0
05 14:15 SW 9 16.09 Overcast BKN033 BKN042 OVC050 26 20 70% 27 75.34 0.0
05 13:55 S 9 16.09 Overcast BKN031 BKN037 OVC047 25 19 69% 26 75.31 0.0
05 13:35 S 15 16.09 Overcast OVC033 25 18 65% 26 75.31 0.0
05 13:15 S 24 16.09 Overcast SCT029 BKN036 OVC046 26 19 65% 27 75.31 0.0
05 12:55 S 17 16.09 Overcast SCT027 BKN042 OVC049 26 19 65% 27 75.31 0.0
05 12:35 S 20 G 33 16.09 Overcast SCT027 BKN041 OVC048 25 18 65% 26 75.31 0.0
05 12:15 S 22 G 30 16.09 Overcast SCT033 BKN042 OVC048 25 18 65% 26 75.34 0.0
05 11:55 S 15 G 30 16.09 Overcast BKN033 OVC045 23 18 74% 75.36 0.0
05 11:35 S 17 G 28 16.09 Overcast BKN035 BKN041 OVC047 24 18 69% 25 75.36 0.0
05 11:15 S 15 G 31 16.09 Overcast BKN031 OVC038 23 18 74% 75.39 0.0
05 10:55 S 17 16.09 Overcast OVC029 23 18 74% 75.39 0.0
05 10:35 SE 7 16.09 Overcast OVC027 23 18 74% 75.36 0.0
05 10:15 S 6 16.09 Overcast OVC027 23 18 74% 75.39 0.0
05 09:55 Calm 16.09 Overcast OVC027 22 18 78% 75.39 0.0
05 09:35 Calm 16.09 Overcast OVC029 22 18 78% 75.41 0.0
05 09:15 Calm 16.09 Overcast OVC029 22 18 78% 75.39 0.0
05 08:55 Calm 16.09 Overcast OVC029 22 17 73% 75.39 0.0
05 08:35 Calm 16.09 Overcast OVC029 22 17 73% 75.39 0.0
05 08:15 Calm 16.09 Overcast OVC029 22 17 73% 75.36 0.0
05 07:55 SE 6 16.09 Overcast OVC029 22 17 73% 75.36 0.0
05 07:35 S 9 16.09 Overcast OVC029 22 17 73% 75.36 0.0
05 07:15 SE 7 16.09 Overcast OVC029 22 17 73% 75.31 0.0
05 06:55 SE 7 16.09 Overcast OVC029 22 17 73% 75.31 0.0
05 06:35 SE 6 16.09 Overcast OVC029 22 17 73% 75.29 0.0
05 06:15 S 7 16.09 Overcast OVC029 22 17 73% 75.26 0.0
05 05:55 S 11 16.09 Overcast OVC031 22 17 73% 75.26 0.0
05 05:35 S 9 16.09 Overcast OVC031 22 17 73% 75.26 0.0
05 05:15 S 13 16.09 Overcast OVC031 22 16 69% 75.23 0.0
05 04:55 S 15 G 26 16.09 Overcast OVC031 22 16 69% 75.21 0.0
05 04:35 S 20 16.09 Mostly Cloudy BKN033 22 16 69% 75.21 0.0
05 04:15 S 24 16.09 Mostly Cloudy BKN035 22 16 69% 75.23 0.0
05 03:55 Calm 16.09 Mostly Cloudy BKN035 22 16 69% 75.23 0.0
05 03:35 Calm 16.09 Partly Cloudy SCT037 22 16 69% 75.23 0.0
05 03:15 Calm 16.09 NULL NULL 22 16 69% 75.23 0.0
05 02:55 Calm 16.09 Partly Cloudy SCT039 SCT110 22 16 69% 75.23 0.0
05 02:35 Calm 16.09 Mostly Cloudy BKN039 23 15 61% 75.26 0.0
05 02:15 S 19 G 31 16.09 Partly Cloudy SCT041 SCT120 23 15 61% 75.31 0.0
05 01:55 S 20 16.09 Partly Cloudy SCT043 SCT120 23 15 61% 75.34 0.0
05 01:40 S 22 G 35 16.09 Partly Cloudy SCT043 23 15 61% 75.36 0.0
05 01:15 S 15 G 30 16.09 Partly Cloudy SCT043 23 14 57% 75.39 0.0
05 00:55 S 19 G 33 16.09 Partly Cloudy SCT045 23 14 57% 75.39 0.0
05 00:35 S 19 G 28 16.09 Mostly Cloudy BKN045 22 13 57% 75.39 0.0
05 00:15 S 13 16.09 Overcast OVC045 22 13 57% 75.41 0.0
04 23:55 S 13 16.09 Mostly Cloudy BKN047 22 13 57% 75.44 0.0
04 23:35 S 22 G 28 16.09 Partly Cloudy SCT049 22 13 57% 75.44 0.0
04 23:15 S 15 16.09 Partly Cloudy SCT049 21 13 60% 75.49 0.0
04 22:55 S 13 16.09 Fair CLR 21 13 60% 75.49 0.0
04 22:35 S 15 16.09 Fair CLR 21 13 60% 75.51 0.0
04 22:15 S 11 16.09 Fair CLR 21 13 60% 75.51 0.0
04 21:55 S 9 16.09 Fair CLR 22 13 57% 75.51 0.0
04 21:35 S 7 16.09 Fair CLR 21 13 60% 75.49 0.0
04 21:15 S 7 16.09 Fair CLR 22 13 57% 75.49 0.0
04 20:55 S 7 16.09 Fair CLR 21 13 60% 75.49 0.0
04 20:35 S 13 16.09 Fair CLR 22 13 57% 75.46 0.0
04 20:15 S 13 G 26 16.09 Fair CLR 23 12 50% 75.44 0.0
04 19:55 S 19 16.09 Fair CLR 23 12 50% 75.44 0.0
04 19:35 S 24 G 31 16.09 Fair CLR 24 12 47% 25 75.44 0.0
04 19:15 S 22 G 35 16.09 Fair CLR 25 12 44% 26 75.46 0.0
04 18:55 S 22 G 37 16.09 Fair CLR 25 12 44% 26 75.46 0.0
04 18:35 S 26 G 39 16.09 Fair CLR 25 12 44% 26 75.46 0.0
04 18:15 S 28 G 37 16.09 Fair CLR 26 12 42% 26 75.46 0.0
04 17:55 S 28 G 33 16.09 Fair CLR 26 13 45% 26 75.46 0.0
04 17:35 S 22 G 33 16.09 Fair CLR 26 13 45% 26 75.46 0.0
04 17:15 S 20 G 33 16.09 Fair CLR 26 13 45% 26 75.49 0.0
04 16:55 S 28 G 37 16.09 Fair CLR 27 13 42% 27 75.49 0.0
04 16:35 S 26 G 33 16.09 Fair CLR 27 13 42% 27 75.51 0.0
04 16:15 S 28 G 39 16.09 Fair CLR 27 13 42% 27 75.57 0.0
04 15:55 S 28 G 39 16.09 Fair CLR 26 12 42% 26 75.57 0.0
04 15:35 S 28 G 41 16.09 Fair CLR 27 12 39% 27 75.62 0.0
04 15:15 S 30 G 46 16.09 Fair CLR 27 12 39% 27 75.62 0.0
04 14:35 S 31 G 39 16.09 Fair CLR 26 12 42% 26 75.69 0.0
04 14:15 S 30 G 37 16.09 Fair CLR 26 13 45% 26 75.72 0.0
04 13:55 S 31 G 43 16.09 Fair CLR 26 12 42% 26 75.74 0.0
04 13:35 S 37 G 46 16.09 Fair and Breezy CLR 26 13 45% 26 75.74 0.0
04 13:15 S 31 G 46 16.09 Fair CLR 26 12 42% 26 75.77 0.0
04 12:55 S 31 G 50 16.09 Fair CLR 25 12 44% 26 75.79 0.0
04 12:35 S 39 G 50 16.09 Fair and Breezy CLR 25 11 42% 26 75.82 0.0
04 12:15 S 30 G 50 16.09 Fair CLR 25 11 42% 26 75.82 0.0
04 11:55 S 28 G 41 16.09 Fair CLR 25 11 42% 26 75.82 0.0
04 11:35 S 31 G 46 16.09 Fair CLR 24 10 41% 25 75.84 0.0
04 11:15 S 35 G 46 16.09 Fair and Breezy CLR 24 10 41% 25 75.87 0.0
04 10:55 S 28 G 41 16.09 Fair CLR 23 11 47% 75.87 0.0
04 10:35 SW 28 G 44 16.09 Fair CLR 23 11 47% 75.87 0.0
04 10:15 SW 33 G 48 16.09 Fair and Breezy CLR 22 11 50% 75.9 0.0
04 09:55 S 28 G 39 16.09 Fair CLR 22 11 50% 75.9 0.0
04 09:35 S 20 G 37 16.09 Fair CLR 22 11 50% 75.92 0.0
04 09:15 S 24 G 41 16.09 Fair CLR 21 11 53% 75.92 0.0
04 08:55 S 24 G 41 16.09 Fair CLR 21 11 53% 75.95 0.0
04 08:35 S 15 16.09 Fair CLR 20 12 60% 75.92 0.0
04 08:15 S 11 16.09 Fair CLR 18 12 68% 75.92 0.0
04 07:55 S 9 16.09 Fair CLR 17 12 73% 75.92 0.0
04 07:35 S 9 16.09 Fair CLR 15 11 77% 75.9 0.0
04 07:15 S 11 16.09 Fair CLR 13 10 82% 75.9 0.0
04 06:55 SW 11 16.09 Fair CLR 13 11 88% 75.9 0.0
04 06:35 SW 7 16.09 Fair CLR 12 10 88% 75.9 0.0
04 06:15 Calm 16.09 Fair CLR 13 10 82% 75.9 0.0
04 05:55 Calm 16.09 Fair CLR 13 11 88% 75.9 0.0
04 05:35 Calm 16.09 Fair CLR 13 11 88% 75.9 0.0
04 05:15 SE 6 16.09 Fair CLR 13 11 88% 75.92 0.0
04 04:55 SE 6 16.09 Fair CLR 14 11 82% 75.92 0.0
04 04:35 Calm 16.09 Fair CLR 13 11 88% 75.95 0.0
04 04:15 Calm 16.09 Fair CLR 15 11 77% 75.95 0.0
04 03:55 Calm 16.09 Fair CLR 14 11 82% 75.95 0.0
04 03:35 Calm 16.09 Fair CLR 13 11 88% 75.95 0.0
04 03:15 Calm 16.09 Fair CLR 14 11 82% 75.97 0.0
04 02:55 Calm 16.09 Fair CLR 16 11 72% 75.97 0.0
04 02:35 SW 7 16.09 Fair CLR 16 11 72% 76 0.0
04 02:15 SW 6 16.09 Fair CLR 16 10 68% 76.02 0.0
04 01:55 Calm 16.09 Fair CLR 14 11 82% 76.05 0.0
04 01:35 SE 6 16.09 Fair CLR 14 11 82% 76.05 0.0
04 01:15 Calm 16.09 Fair CLR 15 11 77% 76.07 0.0
04 00:55 Calm 16.09 Fair CLR 14 11 82% 76.07 0.0
04 00:35 Calm 16.09 Fair CLR 15 11 77% 76.07 0.0
04 00:15 Calm 16.09 Fair CLR 14 11 82% 76.07 0.0
03 23:55 Calm 16.09 Fair CLR 17 11 68% 76.07 0.0
03 23:35 Calm 16.09 Fair CLR 16 11 72% 76.07 0.0
03 23:15 Calm 16.09 Fair CLR 16 11 72% 76.1 0.0
03 22:55 Calm 16.09 Fair CLR 17 11 68% 76.1 0.0
03 22:35 S 6 16.09 Fair CLR 18 10 60% 76.07 0.0
03 22:15 Calm 16.09 Fair CLR 18 10 60% 76.07 0.0
03 21:55 S 7 16.09 Fair CLR 20 10 53% 76.07 0.0
03 21:35 SW 7 16.09 Partly Cloudy SCT080 20 10 53% 76.07 0.0
03 21:15 SW 7 16.09 Partly Cloudy SCT080 21 10 50% 76.05 0.0
03 20:55 S 9 16.09 Fair CLR 21 10 50% 76.05 0.0
03 20:35 S 11 16.09 Fair CLR 21 11 53% 76.02 0.0
03 20:15 Calm 16.09 Fair CLR 22 11 50% 76.02 0.0
03 19:55 S 13 16.09 Fair CLR 23 11 47% 76.02 0.0
03 19:35 S 11 16.09 Fair CLR 25 11 42% 26 76 0.0
03 19:15 S 15 16.09 Fair CLR 26 10 37% 26 76 0.0
03 18:55 S 13 G 30 16.09 Fair CLR 27 10 34% 27 76.02 0.0
03 18:35 SW 19 G 26 16.09 Fair CLR 27 9 32% 27 76.02 0.0
03 18:15 SW 19 G 28 16.09 Fair CLR 28 10 32% 27 76.02 0.0
03 17:55 SW 22 G 31 16.09 Fair CLR 28 8 28% 27 76.02 0.0
03 17:35 S 20 G 31 16.09 Fair CLR 28 8 28% 27 76.02 0.0
03 17:15 S 20 G 33 16.09 Fair CLR 28 8 28% 27 76.05 0.0
03 16:55 S 24 G 30 16.09 Fair CLR 28 9 30% 27 76.05 0.0
03 16:35 SW 19 G 28 16.09 Partly Cloudy SCT080 28 10 32% 27 76.07 0.0
03 16:15 SW 28 G 35 16.09 Partly Cloudy SCT080 28 9 30% 27 76.1 0.0
03 15:55 S 24 G 33 16.09 Fair CLR 28 11 35% 27 76.12 0.0
03 15:35 SW 22 G 35 16.09 Fair CLR 28 11 35% 27 76.15 0.0
03 15:15 S 19 16.09 Fair CLR 28 10 32% 27 76.17 0.0
03 14:55 SW 13 16.09 Fair CLR 27 11 37% 27 76.2 0.0
03 14:35 SW 19 G 30 16.09 Fair CLR 27 11 37% 27 76.23 0.0
03 14:15 SW 17 16.09 Fair CLR 27 11 37% 27 76.25 0.0
03 13:55 SW 24 G 30 16.09 Fair CLR 27 11 37% 27 76.28 0.0
03 13:35 SW 20 G 37 16.09 Fair CLR 26 10 37% 26 76.28 0.0
03 13:15 SW 22 G 35 16.09 Fair CLR 26 10 37% 26 76.35 0.0
03 12:55 SW 28 G 43 16.09 Fair CLR 25 10 39% 26 76.38 0.0
03 12:35 SW 24 G 41 16.09 Fair CLR 25 10 39% 26 76.4 0.0
03 12:15 S 26 G 35 16.09 Fair CLR 25 10 39% 26 76.4 0.0
03 11:55 SW 22 G 35 16.09 Fair CLR 24 10 41% 25 76.43 0.0
03 11:35 SW 24 G 33 16.09 Fair CLR 23 8 38% 76.43 0.0
03 11:15 S 19 G 35 16.09 Fair CLR 23 8 38% 76.45 0.0
03 10:55 S 20 16.09 Fair CLR 22 8 41% 76.48 0.0
03 10:35 S 20 16.09 Fair CLR 21 8 43% 76.5 0.0
03 10:15 S 17 16.09 Fair CLR 21 7 40% 76.5 0.0
03 09:55 S 17 16.09 Fair CLR 20 9 49% 76.53 0.0
03 09:35 SW 7 16.09 Fair CLR 18 9 56% 76.53 0.0
03 09:15 Calm 16.09 Fair CLR 16 8 59% 76.53 0.0
03 08:55 S 6 16.09 Fair CLR 15 8 63% 76.53 0.0
03 08:35 S 6 16.09 Fair CLR 13 8 72% 76.53 0.0
03 08:15 Calm 16.09 Fair CLR 12 8 77% 76.56 0.0
03 07:55 S 7 16.09 Fair CLR 11 8 82% 76.56 0.0
03 07:35 S 6 16.09 Fair CLR 10 7 82% 76.56 0.0
03 07:15 Calm 16.09 Fair CLR 8 7 93% 76.53 0.0
03 06:55 S 6 16.09 Fair CLR 8 6 87% 76.53 0.0
03 06:35 S 6 16.09 Fair CLR 8 6 87% 76.53 0.0
03 06:15 Calm 16.09 Fair CLR 8 7 93% 76.5 0.0
03 05:55 S 7 16.09 Fair CLR 8 6 87% 7 76.5 0.0
03 05:35 S 6 16.09 Fair CLR 8 7 93% 76.53 0.0
03 05:15 S 6 16.09 Fair CLR 8 7 93% 76.53 0.0
03 04:55 S 6 16.09 Fair CLR 8 7 93% 76.53 0.0
03 04:35 S 7 16.09 Fair CLR 8 7 93% 7 76.56 0.0
03 04:15 S 6 16.09 Fair CLR 8 7 93% 76.56 0.0
03 03:55 Calm 11.27 Fair CLR 8 7 93% 76.56 0.0
Date Time (cdt) Wind (kph) Vis. (km) Weather Sky Cond. Air Dwpt Max. Min. Relative Humidity Wind Chill (°C) Heat Index (°C) altimeter (cm) sea level (mb) 1 hr 3 hr 6 hr
6 hour
Temperature (ºC) Pressure Precipitation (cm)